Time;durP1;ratioP1;P1;durP2;ratioP2;P2;SDS_P1;SDS_P2;PMS_P1;PMS_P2;Temp;Humidity;BMP_temperature;BMP_pressure;BME280_temperature;BME280_humidity;BME280_pressure;Samples;Min_cycle;Max_cycle;Signal;HPM_P1;HPM_P2
2022/10/20 00:01:38;;;;;;;18.07;12.10;;;13.60;99.90;;;;;;5114831;28;20250;-89
2022/10/20 00:04:10;;;;;;;17.17;11.80;;;13.50;99.90;;;;;;5113581;28;20189;-89
2022/10/20 00:06:46;;;;;;;17.33;12.07;;;13.60;99.90;;;;;;5114765;28;20209;-89
2022/10/20 00:09:13;;;;;;;16.20;12.23;;;13.40;99.90;;;;;;5114154;28;20239;-90
2022/10/20 00:11:45;;;;;;;18.97;12.23;;;13.30;99.90;;;;;;5114574;28;20227;-88
2022/10/20 00:14:15;;;;;;;18.20;12.40;;;13.40;99.90;;;;;;5113575;28;20212;-89
2022/10/20 00:16:48;;;;;;;19.92;14.27;;;13.20;99.90;;;;;;5113892;28;20432;-90
2022/10/20 00:19:22;;;;;;;19.57;12.43;;;13.30;99.90;;;;;;5114071;28;20228;-89
2022/10/20 00:21:50;;;;;;;18.20;13.13;;;13.30;99.90;;;;;;5114192;28;20201;-89
2022/10/20 00:24:21;;;;;;;23.93;12.67;;;13.30;99.90;;;;;;5114556;28;20201;-90
2022/10/20 00:26:48;;;;;;;17.97;12.57;;;13.40;99.90;;;;;;5117981;28;20192;-89
2022/10/20 00:29:29;;;;;;;17.63;13.03;;;13.40;99.90;;;;;;5117827;28;20200;-89
2022/10/20 00:32:04;;;;;;;19.17;12.53;;;13.40;99.90;;;;;;5117799;28;20196;-89
2022/10/20 00:34:33;;;;;;;18.67;12.57;;;13.30;99.90;;;;;;5121848;28;20617;-90
2022/10/20 00:37:05;;;;;;;20.00;12.97;;;13.20;99.90;;;;;;5118874;27;20192;-89
2022/10/20 00:39:38;;;;;;;17.10;12.80;;;13.10;99.90;;;;;;5117539;28;20224;-89
2022/10/20 00:42:15;;;;;;;15.70;13.13;;;13.00;99.90;;;;;;5118036;28;20211;-89
2022/10/20 00:44:55;;;;;;;22.23;16.77;;;13.00;99.90;;;;;;5115250;28;20473;-89
2022/10/20 00:47:35;;;;;;;18.60;13.17;;;13.20;99.90;;;;;;5117712;28;20196;-89
2022/10/20 00:50:13;;;;;;;17.90;13.77;;;13.20;99.90;;;;;;5117472;27;20227;-89
2022/10/20 00:56:02;;;;;;;22.43;13.53;;;13.10;99.90;;;;;;5117593;28;20242;-89
2022/10/20 00:58:30;;;;;;;19.73;12.97;;;13.00;99.90;;;;;;5117238;28;20232;-89
2022/10/20 01:01:21;;;;;;;18.77;13.53;;;12.90;99.90;;;;;;5116295;28;20262;-89
2022/10/20 01:03:51;;;;;;;16.93;13.10;;;12.70;99.90;;;;;;5116248;28;20720;-89
2022/10/20 01:06:25;;;;;;;17.40;12.53;;;12.70;99.90;;;;;;5117216;28;20401;-89
2022/10/20 01:08:53;;;;;;;18.13;13.43;;;12.80;99.90;;;;;;5117317;28;20185;-89
2022/10/20 01:11:32;;;;;;;23.00;13.30;;;12.90;99.90;;;;;;5117016;28;20220;-88
2022/10/20 01:14:20;;;;;;;17.63;13.97;;;12.90;99.90;;;;;;5117469;28;20203;-90
2022/10/20 01:16:58;;;;;;;16.43;12.60;;;12.80;99.90;;;;;;5116933;28;20232;-89
2022/10/20 01:20:06;;;;;;;18.93;12.60;;;12.80;99.90;;;;;;5117235;28;20247;-88
2022/10/20 01:23:09;;;;;;;17.83;14.23;;;12.90;99.90;;;;;;5117320;28;20203;-88
2022/10/20 01:25:50;;;;;;;18.93;13.30;;;12.90;99.90;;;;;;5117048;28;20210;-89
2022/10/20 01:28:30;;;;;;;20.53;13.40;;;12.80;99.90;;;;;;5116479;28;20727;-88
2022/10/20 01:31:03;;;;;;;21.23;13.20;;;12.80;99.90;;;;;;5115697;28;20253;-88
2022/10/20 01:33:40;;;;;;;19.80;13.80;;;12.80;99.90;;;;;;5116676;28;20212;-89
2022/10/20 01:36:12;;;;;;;19.07;13.93;;;12.90;99.90;;;;;;5116203;28;20549;-87
2022/10/20 01:38:47;;;;;;;17.80;13.13;;;13.00;99.90;;;;;;5116523;28;20228;-88
2022/10/20 01:41:21;;;;;;;19.07;13.33;;;12.80;99.90;;;;;;5116192;28;20203;-89
2022/10/20 01:43:53;;;;;;;18.13;13.03;;;12.70;99.90;;;;;;5116819;28;20207;-88
2022/10/20 01:46:26;;;;;;;18.40;13.00;;;12.70;99.90;;;;;;5116473;28;20200;-88
2022/10/20 01:49:01;;;;;;;15.47;12.70;;;12.80;99.90;;;;;;5116067;28;20212;-88
2022/10/20 01:51:33;;;;;;;20.37;13.87;;;12.90;99.90;;;;;;5116029;28;20204;-90
2022/10/20 01:54:06;;;;;;;17.40;13.33;;;12.80;99.90;;;;;;5115995;27;20654;-88
2022/10/20 01:56:45;;;;;;;20.30;13.30;;;12.90;99.90;;;;;;5115215;28;20194;-88
2022/10/20 01:59:26;;;;;;;18.00;13.23;;;13.00;99.90;;;;;;5117227;27;20243;-89
2022/10/20 02:02:25;;;;;;;20.58;14.65;;;13.00;99.90;;;;;;5116412;28;20402;-88
2022/10/20 02:05:09;;;;;;;19.03;13.87;;;12.90;99.90;;;;;;5116249;28;20199;-88
2022/10/20 02:07:43;;;;;;;17.63;13.50;;;12.90;99.90;;;;;;5116064;28;20212;-89
2022/10/20 02:10:14;;;;;;;21.23;13.53;;;12.90;99.90;;;;;;5115624;27;20219;-88
2022/10/20 02:12:48;;;;;;;18.80;13.67;;;12.90;99.90;;;;;;5115016;28;20245;-88
2022/10/20 02:15:23;;;;;;;19.00;13.10;;;12.90;99.90;;;;;;5115648;28;20187;-88
2022/10/20 02:17:59;;;;;;;18.67;14.40;;;12.80;99.90;;;;;;5116159;28;20206;-89
2022/10/20 02:20:33;;;;;;;18.67;13.57;;;12.60;99.90;;;;;;5115531;27;20238;-88
2022/10/20 02:23:04;;;;;;;16.13;12.47;;;12.60;99.90;;;;;;5115682;28;20188;-88
2022/10/20 02:25:40;;;;;;;15.70;13.17;;;12.80;99.90;;;;;;5110145;28;20197;-89
2022/10/20 02:28:11;;;;;;;19.03;13.83;;;12.80;99.90;;;;;;5104074;28;20214;-88
2022/10/20 02:34:03;;;;;;;18.00;13.43;;;12.90;99.90;;;;;;5114946;28;20199;-88
2022/10/20 02:36:30;;;;;;;17.47;13.60;;;12.90;99.90;;;;;;5115071;28;20683;-88
2022/10/20 02:39:00;;;;;;;19.83;13.90;;;12.90;99.90;;;;;;5114181;28;20232;-88
2022/10/20 02:41:26;;;;;;;18.57;13.73;;;12.90;99.90;;;;;;5101462;28;20212;-88
2022/10/20 02:43:57;;;;;;;16.30;12.77;;;12.90;99.90;;;;;;5113957;28;20213;-88
2022/10/20 02:46:26;;;;;;;17.80;13.10;;;12.90;99.90;;;;;;5115070;28;20670;-88
2022/10/20 02:49:00;;;;;;;18.47;13.50;;;12.90;99.90;;;;;;5114831;28;20215;-88
2022/10/20 02:51:33;;;;;;;18.57;12.87;;;12.90;99.90;;;;;;5115213;28;20208;-88
2022/10/20 02:54:03;;;;;;;14.93;12.70;;;13.00;99.90;;;;;;5114286;28;20198;-88
2022/10/20 02:56:36;;;;;;;16.67;12.87;;;13.00;99.90;;;;;;5114773;28;20224;-88
2022/10/20 02:59:12;;;;;;;18.73;13.63;;;13.10;99.90;;;;;;5114961;28;20235;-88
2022/10/20 03:01:42;;;;;;;20.17;12.47;;;13.10;99.90;;;;;;5100102;28;20232;-89
2022/10/20 03:04:13;;;;;;;18.23;13.43;;;13.00;99.90;;;;;;5113600;28;20331;-88
2022/10/20 03:06:42;;;;;;;19.10;12.87;;;13.10;99.90;;;;;;5114575;28;20219;-88
2022/10/20 03:09:12;;;;;;;16.93;12.60;;;13.00;99.90;;;;;;5113654;28;20269;-88
2022/10/20 03:11:41;;;;;;;18.40;12.67;;;13.00;99.90;;;;;;5114776;28;20227;-88
2022/10/20 03:14:11;;;;;;;22.83;13.10;;;12.90;99.90;;;;;;5101069;28;20216;-88
2022/10/20 03:16:45;;;;;;;20.27;12.93;;;12.90;99.90;;;;;;5114891;28;20211;-87
2022/10/20 03:19:16;;;;;;;18.73;12.73;;;12.90;99.90;;;;;;5115730;27;20235;-89
2022/10/20 03:21:43;;;;;;;24.25;17.75;;;13.00;99.90;;;;;;5114624;28;20436;-89
2022/10/20 03:24:13;;;;;;;21.60;14.70;;;13.00;99.90;;;;;;5115120;28;20197;-88
2022/10/20 03:26:40;;;;;;;19.67;13.87;;;13.10;99.90;;;;;;5114578;28;20643;-88
2022/10/20 03:29:08;;;;;;;23.10;13.60;;;13.00;99.90;;;;;;5114736;28;20208;-88
2022/10/20 03:31:40;;;;;;;19.77;13.33;;;13.00;99.90;;;;;;5116118;27;20208;-89
2022/10/20 03:34:14;;;;;;;17.60;13.23;;;13.00;99.90;;;;;;5114517;28;20216;-89
2022/10/20 03:36:48;;;;;;;23.63;14.27;;;12.80;99.90;;;;;;5114466;28;20662;-88
2022/10/20 03:39:21;;;;;;;20.43;13.60;;;12.70;99.90;;;;;;5114800;27;20304;-90
2022/10/20 03:41:56;;;;;;;24.47;14.87;;;12.70;99.90;;;;;;5114458;28;20212;-89
2022/10/20 03:44:28;;;;;;;18.23;13.17;;;12.80;99.90;;;;;;5114744;28;20199;-90
2022/10/20 03:46:59;;;;;;;22.57;13.80;;;12.80;99.90;;;;;;5114538;28;20285;-89
2022/10/20 03:49:32;;;;;;;17.90;13.90;;;12.70;99.90;;;;;;5114531;28;20552;-88
2022/10/20 03:52:04;;;;;;;19.97;13.80;;;12.80;99.90;;;;;;5114368;28;20216;-89
2022/10/20 03:54:35;;;;;;;20.80;13.90;;;12.80;99.90;;;;;;5114453;28;20236;-88
2022/10/20 03:57:08;;;;;;;18.50;14.87;;;12.70;99.90;;;;;;5105984;28;20258;-88
2022/10/20 03:59:40;;;;;;;19.90;13.90;;;12.70;99.90;;;;;;5097802;28;20209;-88
2022/10/20 04:02:28;;;;;;;18.90;14.27;;;12.60;99.90;;;;;;5118368;27;20218;-88
2022/10/20 04:04:56;;;;;;;18.73;13.43;;;12.60;99.90;;;;;;5118062;28;20219;-87
2022/10/20 04:07:27;;;;;;;23.60;14.77;;;12.60;99.90;;;;;;5117932;28;20197;-87
2022/10/20 04:09:54;;;;;;;23.17;14.63;;;12.60;99.90;;;;;;5117874;28;20227;-88
2022/10/20 04:12:36;;;;;;;20.83;14.43;;;12.60;99.90;;;;;;5117691;28;20211;-87
2022/10/20 04:15:10;;;;;;;21.50;14.73;;;12.40;99.90;;;;;;5117624;28;20204;-87
2022/10/20 04:17:40;;;;;;;22.20;14.13;;;12.30;99.90;;;;;;5117879;28;20210;-88
2022/10/20 04:20:08;;;;;;;20.97;14.00;;;12.30;99.90;;;;;;5116310;28;20235;-86
2022/10/20 04:22:39;;;;;;;22.63;14.87;;;12.30;99.90;;;;;;5117822;28;20207;-87
2022/10/20 04:25:10;;;;;;;19.83;14.30;;;12.50;99.90;;;;;;5118002;28;20214;-86
2022/10/20 04:27:37;;;;;;;26.13;15.60;;;12.40;99.90;;;;;;5117661;28;20286;-87
2022/10/20 04:30:11;;;;;;;20.67;14.77;;;12.40;99.90;;;;;;5117364;28;20196;-87
2022/10/20 04:33:06;;;;;;;20.47;14.47;;;12.50;99.90;;;;;;5117611;28;20214;-87
2022/10/20 04:35:37;;;;;;;25.10;14.87;;;12.50;99.90;;;;;;5102526;28;20222;-87
2022/10/20 04:38:08;;;;;;;20.77;14.70;;;12.50;99.90;;;;;;5103648;28;20227;-87
2022/10/20 04:40:37;;;;;;;26.48;19.77;;;12.50;99.90;;;;;;5116286;28;20456;-87
2022/10/20 04:43:07;;;;;;;22.33;15.17;;;12.60;99.90;;;;;;5117237;27;20204;-87
2022/10/20 04:46:12;;;;;;;25.40;15.00;;;12.60;99.90;;;;;;5117387;28;20232;-88
2022/10/20 04:48:43;;;;;;;22.10;14.60;;;12.60;99.90;;;;;;5106289;28;20215;-87
2022/10/20 04:51:36;;;;;;;21.93;14.50;;;12.60;99.90;;;;;;5116965;28;20208;-87
2022/10/20 04:54:10;;;;;;;26.03;14.80;;;12.50;99.90;;;;;;5117070;28;20216;-87
2022/10/20 04:56:42;;;;;;;23.27;14.37;;;12.60;99.90;;;;;;5117417;27;20210;-88
2022/10/20 04:59:10;;;;;;;19.27;13.87;;;12.50;99.90;;;;;;5117144;28;20214;-87
2022/10/20 05:01:40;;;;;;;18.83;14.03;;;12.60;99.90;;;;;;5113044;28;20199;-87
2022/10/20 05:04:28;;;;;;;28.23;15.90;;;12.50;99.90;;;;;;5110551;28;20662;-88
2022/10/20 05:06:59;;;;;;;26.30;19.75;;;12.60;99.90;;;;;;5112940;28;20433;-88
2022/10/20 05:09:27;;;;;;;22.33;16.23;;;12.60;99.90;;;;;;5106060;28;20213;-88
2022/10/20 05:12:16;;;;;;;24.30;14.83;;;12.70;99.90;;;;;;5113485;28;20302;-88
2022/10/20 05:14:46;;;;;;;20.20;13.90;;;12.80;99.90;;;;;;5100641;28;20204;-88
2022/10/20 05:17:19;;;;;;;18.60;14.47;;;12.90;99.90;;;;;;5116759;28;20658;-85
2022/10/20 05:19:46;;;;;;;23.40;14.70;;;12.90;99.90;;;;;;5116151;28;20236;-87
2022/10/20 05:22:13;;;;;;;20.77;13.77;;;12.80;99.90;;;;;;5116360;28;20199;-87
2022/10/20 05:24:45;;;;;;;20.20;13.53;;;12.80;99.90;;;;;;5116520;28;20201;-86
2022/10/20 05:27:23;;;;;;;21.03;14.20;;;12.90;99.90;;;;;;5116563;28;20214;-87
2022/10/20 05:29:50;;;;;;;19.63;13.53;;;12.80;99.90;;;;;;5116284;28;20207;-87
2022/10/20 05:32:19;;;;;;;17.67;14.20;;;12.80;99.90;;;;;;5116768;28;20207;-87
2022/10/20 05:35:02;;;;;;;26.10;14.03;;;12.90;99.90;;;;;;5101908;28;20328;-87
2022/10/20 05:37:35;;;;;;;20.87;13.37;;;12.80;99.90;;;;;;5117552;27;20215;-87
2022/10/20 05:40:05;;;;;;;18.90;13.57;;;12.80;99.90;;;;;;5115368;28;20235;-87
2022/10/20 05:42:38;;;;;;;23.03;14.20;;;12.90;99.90;;;;;;5116041;27;20207;-87
2022/10/20 05:45:06;;;;;;;21.07;14.67;;;13.00;99.90;;;;;;5116030;28;20577;-87
2022/10/20 05:47:35;;;;;;;18.30;13.23;;;13.00;99.90;;;;;;5115742;28;20200;-87
2022/10/20 05:50:03;;;;;;;22.10;13.60;;;13.00;99.90;;;;;;5115946;28;20639;-86
2022/10/20 05:52:42;;;;;;;19.33;12.87;;;13.10;99.90;;;;;;5097576;28;20201;-87
2022/10/20 05:55:16;;;;;;;20.80;12.77;;;12.80;99.90;;;;;;5115773;28;20596;-87
2022/10/20 05:57:49;;;;;;;17.33;12.57;;;12.90;99.90;;;;;;5116336;27;20207;-87
2022/10/20 06:00:18;;;;;;;19.25;15.48;;;12.80;99.90;;;;;;5114248;28;20792;-87
2022/10/20 06:02:48;;;;;;;20.73;12.43;;;12.90;99.90;;;;;;5114592;28;20204;-87
2022/10/20 06:05:21;;;;;;;22.10;13.27;;;13.00;99.90;;;;;;5115929;28;20204;-86
2022/10/20 06:07:56;;;;;;;14.63;12.10;;;13.00;99.90;;;;;;5115691;28;20204;-87
2022/10/20 06:10:25;;;;;;;17.63;12.30;;;13.00;99.90;;;;;;5115447;28;20238;-86
2022/10/20 06:12:57;;;;;;;19.67;12.20;;;13.20;99.90;;;;;;5115541;28;20213;-88
2022/10/20 06:15:32;;;;;;;17.57;12.20;;;13.20;99.90;;;;;;5115720;28;20205;-87
2022/10/20 06:18:00;;;;;;;15.47;12.30;;;13.10;99.90;;;;;;5115198;28;20204;-87
2022/10/20 06:20:32;;;;;;;18.67;12.10;;;13.20;99.90;;;;;;5115230;27;20212;-85
2022/10/20 06:22:59;;;;;;;18.13;12.13;;;13.20;99.90;;;;;;5114039;28;20208;-85
2022/10/20 06:25:30;;;;;;;14.83;11.27;;;13.30;99.90;;;;;;5115287;28;20215;-86
2022/10/20 06:27:58;;;;;;;18.93;11.60;;;13.30;99.90;;;;;;5113913;28;20253;-86
2022/10/20 06:30:25;;;;;;;13.80;11.67;;;13.40;99.90;;;;;;5114616;28;20208;-88
2022/10/20 06:32:55;;;;;;;14.37;11.27;;;13.40;99.90;;;;;;5114830;28;20208;-86
2022/10/20 06:35:25;;;;;;;16.10;10.40;;;13.50;99.90;;;;;;5115261;28;20215;-85
2022/10/20 06:37:53;;;;;;;15.23;10.50;;;13.60;99.90;;;;;;5114848;27;20188;-86
2022/10/20 06:40:20;;;;;;;14.53;10.50;;;13.60;99.90;;;;;;5114327;28;20227;-86
2022/10/20 06:42:48;;;;;;;14.50;11.00;;;13.50;99.90;;;;;;5106248;28;20197;-84
2022/10/20 06:45:17;;;;;;;16.93;11.20;;;13.60;99.90;;;;;;5100425;28;20569;-85
2022/10/20 06:47:44;;;;;;;13.57;10.37;;;13.80;99.90;;;;;;5105094;28;20212;-85
2022/10/20 06:50:12;;;;;;;12.27;10.47;;;13.80;99.90;;;;;;5102737;28;20204;-84
2022/10/20 06:52:39;;;;;;;16.13;10.03;;;13.90;99.90;;;;;;5097951;28;20193;-83
2022/10/20 06:55:07;;;;;;;16.40;10.63;;;13.80;99.90;;;;;;5112285;28;20594;-85
2022/10/20 06:57:35;;;;;;;15.50;9.60;;;13.90;99.90;;;;;;5113876;28;20204;-82
2022/10/20 07:00:05;;;;;;;16.93;10.43;;;14.00;99.90;;;;;;5110429;28;20212;-87
2022/10/20 07:02:32;;;;;;;10.60;9.43;;;14.00;99.90;;;;;;5103629;28;20207;-85
2022/10/20 07:04:59;;;;;;;13.63;10.13;;;14.10;99.90;;;;;;5110197;28;20219;-87
2022/10/20 07:07:25;;;;;;;13.60;9.80;;;14.00;99.90;;;;;;5124244;28;20197;-85
2022/10/20 07:09:52;;;;;;;12.77;9.57;;;14.00;99.90;;;;;;5119424;28;20200;-83
2022/10/20 07:12:19;;;;;;;14.63;10.30;;;14.10;99.90;;;;;;5119802;28;20218;-85
2022/10/20 07:14:46;;;;;;;14.60;10.23;;;14.20;99.90;;;;;;5115136;28;20651;-84
2022/10/20 07:17:14;;;;;;;18.53;9.43;;;14.30;99.90;;;;;;5118195;28;20211;-83
2022/10/20 07:19:41;;;;;;;12.10;9.87;;;14.30;99.90;;;;;;5116389;28;20196;-86
2022/10/20 07:22:07;;;;;;;12.93;11.40;;;14.40;99.90;;;;;;5113047;28;20927;-87
2022/10/20 07:24:34;;;;;;;10.73;9.63;;;14.60;99.90;;;;;;5114289;28;20204;-85
2022/10/20 07:27:01;;;;;;;13.67;9.07;;;14.70;99.90;;;;;;5112911;28;20210;-85
2022/10/20 07:29:29;;;;;;;16.03;9.27;;;14.70;99.90;;;;;;5110477;28;20207;-83
2022/10/20 07:31:57;;;;;;;14.37;8.87;;;14.70;99.90;;;;;;5099251;28;20665;-86
2022/10/20 07:34:25;;;;;;;13.57;9.07;;;14.70;99.90;;;;;;5105575;27;20214;-83
2022/10/20 07:36:52;;;;;;;11.60;8.53;;;14.70;99.90;;;;;;5103421;28;20206;-87
2022/10/20 07:39:19;;;;;;;15.60;8.43;;;14.70;99.90;;;;;;5103984;27;20200;-88
2022/10/20 07:41:46;;;;;;;14.97;8.47;;;14.70;99.90;;;;;;5106106;28;20235;-85
2022/10/20 07:44:13;;;;;;;9.03;7.87;;;14.80;99.90;;;;;;5110297;28;20312;-83
2022/10/20 07:46:39;;;;;;;10.73;8.03;;;14.90;99.90;;;;;;5100323;28;20207;-85
2022/10/20 07:49:06;;;;;;;12.37;8.57;;;14.90;99.90;;;;;;5117618;28;20207;-86
2022/10/20 07:51:34;;;;;;;9.80;8.80;;;14.80;99.90;;;;;;5111447;28;20195;-86
2022/10/20 07:54:04;;;;;;;11.33;8.77;;;14.80;99.90;;;;;;5109830;28;20216;-86
2022/10/20 07:56:33;;;;;;;13.27;9.53;;;14.80;99.90;;;;;;5117380;28;20896;-85
2022/10/20 07:59:01;;;;;;;14.67;8.57;;;14.90;99.90;;;;;;5117593;28;20212;-86
2022/10/20 08:01:29;;;;;;;11.27;8.77;;;14.90;99.90;;;;;;5117509;28;20583;-86
2022/10/20 08:03:59;;;;;;;11.70;9.20;;;15.00;99.90;;;;;;5114628;28;20661;-86
2022/10/20 08:06:27;;;;;;;17.90;9.57;;;15.00;99.90;;;;;;5117956;27;20209;-87
2022/10/20 08:09:04;;;;;;;12.83;9.37;;;15.10;99.90;;;;;;5118077;28;20202;-88
2022/10/20 08:11:31;;;;;;;15.60;9.87;;;15.10;99.90;;;;;;5117857;28;20219;-87
2022/10/20 08:13:58;;;;;;;14.93;10.03;;;15.00;99.90;;;;;;5116354;28;20679;-87
2022/10/20 08:16:24;;;;;;;13.17;9.30;;;15.00;99.90;;;;;;5116877;27;20203;-87
2022/10/20 08:18:51;;;;;;;16.47;10.07;;;15.00;99.90;;;;;;5104443;28;21790;-87
2022/10/20 08:21:21;;;;;;;15.97;10.23;;;14.90;99.90;;;;;;5110014;28;20244;-88
2022/10/20 08:23:51;;;;;;;12.17;9.70;;;15.00;99.90;;;;;;5105835;28;20629;-88
2022/10/20 08:26:21;;;;;;;11.97;10.73;;;15.10;99.90;;;;;;5115083;28;20205;-88
2022/10/20 08:28:49;;;;;;;11.93;10.47;;;15.10;99.90;;;;;;5103606;28;20206;-88
2022/10/20 08:31:16;;;;;;;14.37;9.87;;;15.10;99.90;;;;;;5117464;28;20197;-89
2022/10/20 08:33:43;;;;;;;14.60;10.27;;;15.10;99.90;;;;;;5116336;28;20211;-87
2022/10/20 08:36:12;;;;;;;17.47;10.67;;;15.10;99.90;;;;;;5117481;28;20208;-89
2022/10/20 08:38:40;;;;;;;12.20;10.23;;;14.80;99.90;;;;;;5117316;28;20233;-87
2022/10/20 08:41:15;;;;;;;17.30;11.47;;;14.70;99.90;;;;;;5116567;28;20713;-87
2022/10/20 08:43:46;;;;;;;18.98;14.15;;;14.70;99.90;;;;;;5117184;28;20980;-87
2022/10/20 08:46:16;;;;;;;20.23;12.30;;;14.90;99.90;;;;;;5113704;28;20211;-87
2022/10/20 08:48:44;;;;;;;21.13;11.80;;;14.80;99.90;;;;;;5105990;28;20212;-88
2022/10/20 08:51:17;;;;;;;17.03;12.07;;;15.10;99.90;;;;;;5116280;28;20664;-87
2022/10/20 08:53:46;;;;;;;16.23;12.17;;;15.10;99.90;;;;;;5105278;28;20214;-88
2022/10/20 08:56:14;;;;;;;18.27;11.33;;;15.10;99.90;;;;;;5115600;28;20228;-88
2022/10/20 08:58:45;;;;;;;15.07;11.77;;;15.20;99.90;;;;;;5106009;28;20203;-88
2022/10/20 09:01:19;;;;;;;16.53;12.03;;;15.20;99.90;;;;;;5112918;28;20262;-88
2022/10/20 09:03:50;;;;;;;19.80;11.73;;;15.30;99.90;;;;;;5116564;28;20202;-88
2022/10/20 09:06:18;;;;;;;18.50;11.93;;;15.40;99.90;;;;;;5116783;28;20209;-88
2022/10/20 09:08:45;;;;;;;19.37;12.43;;;15.40;99.90;;;;;;5101905;28;20699;-86
2022/10/20 09:11:16;;;;;;;16.53;12.60;;;15.40;99.90;;;;;;5116612;27;20215;-87
2022/10/20 09:13:47;;;;;;;14.70;12.90;;;15.30;99.90;;;;;;5116768;28;20208;-88
2022/10/20 09:16:20;;;;;;;17.40;12.17;;;15.40;99.90;;;;;;5116768;28;20205;-88
2022/10/20 09:18:53;;;;;;;21.43;12.80;;;15.40;99.90;;;;;;5116516;28;20207;-88
2022/10/20 09:21:21;;;;;;;22.93;12.50;;;15.50;99.90;;;;;;5117051;28;20217;-88
2022/10/20 09:23:52;;;;;;;20.50;12.37;;;15.60;99.90;;;;;;5116520;28;20209;-88
2022/10/20 09:26:21;;;;;;;21.43;12.33;;;15.70;99.90;;;;;;5112250;28;20192;-87
2022/10/20 09:28:52;;;;;;;16.30;12.30;;;15.80;99.90;;;;;;5116239;28;20203;-88
2022/10/20 09:31:27;;;;;;;16.17;12.93;;;15.90;99.90;;;;;;5110795;28;20224;-87
2022/10/20 09:33:54;;;;;;;23.70;13.03;;;16.00;99.90;;;;;;5116058;28;20203;-88
2022/10/20 09:36:21;;;;;;;20.57;12.97;;;16.00;99.90;;;;;;5116112;28;20197;-88
2022/10/20 09:38:51;;;;;;;24.13;14.40;;;16.00;99.90;;;;;;5114367;28;20429;-88
2022/10/20 09:41:21;;;;;;;20.07;12.97;;;16.10;99.90;;;;;;5115923;28;20250;-87
2022/10/20 09:43:53;;;;;;;16.77;13.10;;;16.20;99.90;;;;;;5113408;28;20204;-87
2022/10/20 09:46:24;;;;;;;22.27;12.57;;;16.30;99.90;;;;;;5116442;27;20204;-87
2022/10/20 09:48:52;;;;;;;17.33;11.87;;;16.40;99.90;;;;;;5116133;28;20201;-88
2022/10/20 09:51:22;;;;;;;16.07;11.83;;;16.40;99.90;;;;;;5110166;27;20234;-88
2022/10/20 09:53:57;;;;;;;17.67;12.03;;;16.40;99.90;;;;;;5109383;28;20208;-88
2022/10/20 09:56:26;;;;;;;20.23;11.47;;;16.60;99.90;;;;;;5115603;28;20202;-89
2022/10/20 09:59:00;;;;;;;13.83;11.00;;;16.80;99.90;;;;;;5116419;28;20207;-91
2022/10/20 10:01:29;;;;;;;22.30;11.90;;;17.00;99.90;;;;;;5114730;28;20226;-90
2022/10/20 10:04:00;;;;;;;16.33;9.93;;;17.10;99.90;;;;;;5122339;28;20204;-88
2022/10/20 10:06:32;;;;;;;16.77;10.17;;;17.30;99.90;;;;;;5138861;28;20203;-88
2022/10/20 10:09:00;;;;;;;15.83;9.20;;;17.30;99.90;;;;;;5133292;28;20216;-88
2022/10/20 10:11:33;;;;;;;14.17;10.00;;;17.50;99.90;;;;;;5130562;28;20250;-88
2022/10/20 10:14:03;;;;;;;12.13;9.10;;;17.50;99.90;;;;;;5129760;28;20200;-88
2022/10/20 10:16:40;;;;;;;14.40;9.33;;;17.60;99.90;;;;;;5132688;28;20205;-87
2022/10/20 10:19:07;;;;;;;11.00;9.03;;;17.60;99.90;;;;;;5127811;28;20199;-89
2022/10/20 10:21:45;;;;;;;15.80;9.10;;;17.50;99.90;;;;;;5131833;28;20232;-87
2022/10/20 10:24:29;;;;;;;16.97;9.60;;;17.40;99.90;;;;;;5112873;28;20195;-87
2022/10/20 10:26:57;;;;;;;14.03;8.93;;;17.40;99.90;;;;;;5111066;28;20299;-87
2022/10/20 10:29:34;;;;;;;17.03;9.17;;;17.30;99.90;;;;;;5114454;28;20211;-88
2022/10/20 10:32:01;;;;;;;13.57;8.70;;;17.30;99.90;;;;;;5114316;28;20701;-88
2022/10/20 10:34:58;;;;;;;14.33;8.40;;;17.40;99.90;;;;;;5114292;28;20223;-88
2022/10/20 10:37:25;;;;;;;11.33;7.87;;;17.60;99.90;;;;;;5113929;28;20223;-88
2022/10/20 10:39:52;;;;;;;16.83;8.70;;;17.70;99.90;;;;;;5105969;28;20207;-88
2022/10/20 10:42:40;;;;;;;15.13;8.13;;;17.60;99.90;;;;;;5110348;28;20632;-87
2022/10/20 10:45:17;;;;;;;12.43;7.83;;;17.70;99.90;;;;;;5114733;28;20699;-88
2022/10/20 10:48:00;;;;;;;11.77;7.53;;;17.60;99.90;;;;;;5114560;28;20204;-87
2022/10/20 10:50:33;;;;;;;15.97;8.27;;;17.50;99.90;;;;;;5114946;28;20196;-88
2022/10/20 10:53:10;;;;;;;14.40;8.37;;;17.60;99.90;;;;;;5114690;28;20682;-87
2022/10/20 10:55:50;;;;;;;15.53;7.60;;;17.70;99.90;;;;;;5114528;28;20574;-87
2022/10/20 10:58:30;;;;;;;9.17;6.90;;;17.80;99.90;;;;;;5114920;28;20632;-88
2022/10/20 11:01:05;;;;;;;9.37;6.87;;;17.90;99.90;;;;;;5113539;28;20199;-88
2022/10/20 11:03:48;;;;;;;13.83;6.70;;;18.00;99.90;;;;;;5103132;28;20199;-88
2022/10/20 11:06:25;;;;;;;16.40;6.67;;;18.10;99.90;;;;;;5114551;28;20219;-88
2022/10/20 11:09:11;;;;;;;15.47;6.47;;;18.30;99.90;;;;;;5099637;28;20227;-88
2022/10/20 11:11:50;;;;;;;13.27;6.30;;;18.40;99.90;;;;;;5114689;28;20211;-88
2022/10/20 11:14:30;;;;;;;10.43;5.90;;;18.60;99.90;;;;;;5114770;28;20215;-88
2022/10/20 11:17:12;;;;;;;10.83;5.73;;;18.70;99.90;;;;;;5114404;28;20216;-88
2022/10/20 11:19:53;;;;;;;12.07;6.37;;;18.50;99.90;;;;;;5114639;28;20200;-91
2022/10/20 11:22:32;;;;;;;9.03;5.67;;;18.50;99.90;;;;;;5114163;28;20228;-89
2022/10/20 11:25:07;;;;;;;8.57;5.23;;;18.60;99.90;;;;;;5114653;28;20202;-92
2022/10/20 11:27:36;;;;;;;13.63;6.20;;;18.70;99.90;;;;;;5099380;28;20436;-92
2022/10/20 11:30:14;;;;;;;10.73;5.80;;;18.80;99.90;;;;;;5114842;28;20561;-92
2022/10/20 11:32:49;;;;;;;10.77;5.30;;;18.80;99.90;;;;;;5108552;28;20761;-88
2022/10/20 11:35:25;;;;;;;10.07;6.10;;;18.80;99.90;;;;;;5107371;28;20215;-88
2022/10/20 11:37:56;;;;;;;9.00;5.20;;;18.70;99.90;;;;;;5100266;28;20666;-88
2022/10/20 11:40:26;;;;;;;9.87;5.00;;;18.80;99.90;;;;;;5113895;28;20212;-87
2022/10/20 11:43:00;;;;;;;6.17;4.73;;;18.80;99.90;;;;;;5113698;28;20719;-87
2022/10/20 11:45:37;;;;;;;7.30;4.60;;;18.70;99.90;;;;;;5113159;28;20204;-87
2022/10/20 11:48:14;;;;;;;7.20;4.70;;;18.80;99.90;;;;;;5100645;28;20215;-88
2022/10/20 11:50:48;;;;;;;10.53;5.10;;;18.70;99.90;;;;;;5099730;28;20201;-88
2022/10/20 11:53:31;;;;;;;10.07;4.60;;;18.70;99.90;;;;;;5114043;28;20209;-87
2022/10/20 11:56:14;;;;;;;6.90;4.90;;;18.80;99.90;;;;;;5098018;27;20225;-87
2022/10/20 11:59:18;;;;;;;6.97;4.60;;;18.70;99.90;;;;;;5103074;28;20199;-87
2022/10/20 12:02:10;;;;;;;9.97;4.67;;;18.80;99.90;;;;;;5105097;28;20260;-87
2022/10/20 12:05:18;;;;;;;9.60;5.27;;;18.80;99.90;;;;;;5096259;28;20207;-87
2022/10/20 12:08:11;;;;;;;5.60;4.40;;;18.80;99.90;;;;;;5066588;28;20238;-88
2022/10/20 12:10:43;;;;;;;6.80;4.20;;;18.90;99.90;;;;;;5100158;28;20675;-88
2022/10/20 12:13:33;;;;;;;9.10;4.10;;;18.90;99.90;;;;;;5113970;28;20227;-88
2022/10/20 12:16:00;;;;;;;6.70;3.83;;;18.90;99.90;;;;;;5101686;28;20208;-88
2022/10/20 12:18:29;;;;;;;7.37;4.10;;;19.10;99.90;;;;;;5113615;28;20549;-87
2022/10/20 12:21:00;;;;;;;5.57;3.23;;;19.10;99.90;;;;;;5109894;28;20207;-87
2022/10/20 12:24:01;;;;;;;10.80;3.70;;;19.20;99.90;;;;;;5116523;28;20232;-88
2022/10/20 12:27:06;;;;;;;6.37;3.37;;;19.20;99.90;;;;;;5111392;28;20207;-87
2022/10/20 12:29:59;;;;;;;6.97;3.50;;;19.20;99.90;;;;;;5116742;28;20200;-87
2022/10/20 12:32:38;;;;;;;6.67;3.60;;;19.20;99.90;;;;;;5110266;28;20209;-87
2022/10/20 12:35:27;;;;;;;8.70;2.67;;;19.30;99.90;;;;;;5115805;28;20204;-86
2022/10/20 12:38:01;;;;;;;5.57;3.37;;;19.40;99.90;;;;;;5112353;28;20219;-87
2022/10/20 12:40:33;;;;;;;8.67;3.13;;;19.40;99.90;;;;;;5116936;28;20232;-86
2022/10/20 12:43:00;;;;;;;7.13;3.40;;;19.40;99.90;;;;;;5116377;28;20228;-86
2022/10/20 12:45:36;;;;;;;7.40;3.23;;;19.50;99.90;;;;;;5115589;28;20196;-86
2022/10/20 12:48:04;;;;;;;6.20;2.93;;;19.60;99.90;;;;;;5116172;28;20233;-86
2022/10/20 12:50:35;;;;;;;9.00;3.10;;;19.70;99.90;;;;;;5116727;28;20203;-86
2022/10/20 12:53:19;;;;;;;5.37;2.60;;;19.80;99.90;;;;;;5116678;28;20684;-86
2022/10/20 12:55:57;;;;;;;4.87;3.03;;;19.80;99.90;;;;;;5117001;28;20232;-87
2022/10/20 12:58:30;;;;;;;6.30;2.60;;;19.70;99.90;;;;;;5115216;28;20565;-86
2022/10/20 13:01:04;;;;;;;6.17;2.47;;;19.80;99.90;;;;;;5116968;28;20314;-86
2022/10/20 13:03:43;;;;;;;5.27;2.37;;;19.90;99.90;;;;;;5114272;28;20231;-85
2022/10/20 13:06:41;;;;;;;6.10;2.47;;;20.10;99.90;;;;;;5106328;28;20204;-86
2022/10/20 13:09:21;;;;;;;4.60;2.20;;;20.10;99.90;;;;;;5104288;28;20258;-86